Time;durP1;ratioP1;P1;durP2;ratioP2;P2;SDS_P1;SDS_P2;PMS_P1;PMS_P2;Temp;Humidity;BMP_temperature;BMP_pressure;BME280_temperature;BME280_humidity;BME280_pressure;Samples;Min_cycle;Max_cycle;Signal;HPM_P1;HPM_P2
2022/08/12 00:44:23;;;;;;;9.85;2.80;;;564.10;1587.20;;;;;;4994292;28;20038;-84
2022/08/12 00:46:58;;;;;;;8.90;2.30;;;588.80;1612.80;;;;;;4976354;28;20162;-85
2022/08/12 00:49:26;;;;;;;11.65;2.40;;;564.10;1612.80;;;;;;4977007;28;20035;-85
2022/08/12 00:52:05;;;;;;;12.27;1.98;;;588.80;1612.80;;;;;;4994083;28;20027;-86
2022/08/12 00:54:58;;;;;;;8.00;3.03;;;564.10;1612.80;;;;;;4978941;28;20026;-86
2022/08/12 00:57:30;;;;;;;6.03;2.42;;;588.80;1612.80;;;;;;4998175;28;20127;-87
2022/08/12 01:00:02;;;;;;;6.05;2.20;;;564.10;1638.40;;;;;;4997799;28;20561;-86
2022/08/12 01:02:38;;;;;;;5.72;2.35;;;564.00;1638.40;;;;;;4997913;28;20077;-86
2022/08/12 01:13:27;;;;;;;2.92;2.00;;;563.90;1664.00;;;;;;4997861;28;20080;-86
2022/08/12 01:15:55;;;;;;;3.00;1.80;;;563.80;1664.00;;;;;;4996824;28;20057;-86
2022/08/12 01:18:24;;;;;;;5.28;1.98;;;563.80;1689.60;;;;;;4980372;28;20033;-86
2022/08/12 01:21:18;;;;;;;5.70;2.20;;;563.80;1664.00;;;;;;4980447;28;20070;-85
2022/08/12 01:23:44;;;;;;;7.18;2.58;;;563.60;1689.60;;;;;;4980122;28;20301;-85
2022/08/12 01:26:19;;;;;;;11.13;2.67;;;563.60;1715.20;;;;;;4980375;28;20073;-85
2022/08/12 01:28:47;;;;;;;6.93;2.90;;;563.60;1715.20;;;;;;4979386;28;20105;-85
2022/08/12 01:31:15;;;;;;;8.30;2.17;;;563.60;1715.20;;;;;;4980130;28;20030;-85
2022/08/12 01:34:14;;;;;;;3.13;1.90;;;563.60;1715.20;;;;;;4979950;28;20121;-84
2022/08/12 01:36:45;;;;;;;3.28;2.17;;;563.60;1740.80;;;;;;4986247;28;20492;-85
2022/08/12 01:39:15;;;;;;;5.53;2.05;;;563.50;1740.80;;;;;;4979206;28;20034;-81
2022/08/12 01:41:52;;;;;;;7.47;2.13;;;563.50;1740.80;;;;;;4995477;28;20049;-81
2022/08/12 01:44:20;;;;;;;8.45;2.58;;;563.50;1740.80;;;;;;5009373;28;20061;-83
2022/08/12 01:47:04;;;;;;;4.20;1.80;;;563.40;1766.40;;;;;;4980207;28;20138;-83
2022/08/12 01:50:07;;;;;;;7.07;2.05;;;563.30;1766.40;;;;;;4991437;28;20437;-83
2022/08/12 01:52:43;;;;;;;4.97;2.00;;;563.50;1766.40;;;;;;4979150;28;20026;-82
2022/08/12 01:55:12;;;;;;;3.50;2.10;;;563.50;1766.40;;;;;;4979275;28;20018;-83
2022/08/12 01:57:46;;;;;;;16.27;2.53;;;563.30;1766.40;;;;;;4996346;28;20510;-82
2022/08/12 02:00:15;;;;;;;8.93;2.03;;;563.40;1766.40;;;;;;4979209;28;20022;-83
2022/08/12 02:02:55;;;;;;;6.05;3.00;;;563.30;1766.40;;;;;;4996558;28;20026;-83
2022/08/12 02:11:33;;;;;;;3.67;2.58;;;538.50;1766.40;;;;;;4996372;28;20077;-83
2022/08/12 02:14:47;;;;;;;5.63;2.50;;;538.40;1792.00;;;;;;4978971;28;20023;-83
2022/08/12 02:17:40;;;;;;;4.40;2.20;;;538.30;1792.00;;;;;;4920341;29;20441;-82
2022/08/12 02:20:09;;;;;;;12.27;2.35;;;538.40;1792.00;;;;;;4936290;29;20031;-82
2022/08/12 02:22:42;;;;;;;6.78;2.13;;;538.50;1766.40;;;;;;4920167;29;20068;-82
2022/08/12 02:25:21;;;;;;;5.20;1.98;;;563.20;1792.00;;;;;;4935721;29;20031;-82
2022/08/12 02:27:52;;;;;;;5.18;2.10;;;563.20;1792.00;;;;;;4923267;29;20116;-82
2022/08/12 02:30:23;;;;;;;4.47;2.33;;;538.40;1792.00;;;;;;4936268;29;20046;-82
2022/08/12 02:32:51;;;;;;;7.55;2.10;;;538.40;1792.00;;;;;;4918711;29;20091;-82
2022/08/12 02:35:22;;;;;;;5.30;2.15;;;538.50;1792.00;;;;;;4946974;29;20109;-83
2022/08/12 02:37:51;;;;;;;3.75;1.90;;;538.40;1792.00;;;;;;4934951;29;20043;-83
2022/08/12 02:40:18;;;;;;;6.72;2.40;;;538.40;1792.00;;;;;;4926605;29;20042;-82
2022/08/12 02:42:50;;;;;;;6.90;2.03;;;538.40;1817.60;;;;;;4922383;29;20052;-83
2022/08/12 02:45:22;;;;;;;8.05;2.40;;;538.50;1792.00;;;;;;4936293;29;20031;-83
2022/08/12 02:47:50;;;;;;;5.18;2.15;;;538.50;1792.00;;;;;;4920150;29;20039;-83
2022/08/12 02:50:19;;;;;;;6.97;2.28;;;538.50;1817.60;;;;;;4943122;28;20122;-85
2022/08/12 02:52:46;;;;;;;6.93;2.10;;;538.50;1868.80;;;;;;4975386;28;20022;-85
2022/08/12 02:55:20;;;;;;;7.18;1.92;;;538.40;1868.80;;;;;;4992248;28;20030;-85
2022/08/12 02:57:46;;;;;;;3.85;2.15;;;538.30;1868.80;;;;;;4978656;28;20025;-85
2022/08/12 03:00:17;;;;;;;5.13;1.90;;;538.30;1894.40;;;;;;4978497;28;20026;-85
2022/08/12 03:02:45;;;;;;;10.45;1.95;;;538.30;1920.00;;;;;;4994511;28;20384;-84
2022/08/12 03:05:16;;;;;;;7.30;2.53;;;538.20;1971.20;;;;;;4994775;28;20026;-82
2022/08/12 03:07:52;;;;;;;7.80;2.55;;;538.10;1971.20;;;;;;4994322;28;20049;-83
2022/08/12 03:10:20;;;;;;;;;;;538.00;1971.20;;;;;;4973303;28;20032;-85
2022/08/12 03:12:47;;;;;;;4.28;2.28;;;538.00;1971.20;;;;;;4978098;28;19957;-83
2022/08/12 03:15:15;;;;;;;7.10;2.50;;;537.90;1996.80;;;;;;4993736;28;20027;-84
2022/08/12 03:17:59;;;;;;;8.30;2.17;;;537.90;1996.80;;;;;;4974290;28;20022;-85
2022/08/12 03:20:25;;;;;;;4.07;1.98;;;538.00;1996.80;;;;;;4978026;28;20030;-84
2022/08/12 03:22:51;;;;;;;5.63;2.65;;;537.80;2022.40;;;;;;4994162;28;20026;-85
2022/08/12 03:25:26;;;;;;;7.05;2.53;;;537.80;1996.80;;;;;;4995171;28;20018;-84
2022/08/12 03:27:57;;;;;;;5.53;2.33;;;537.70;2022.40;;;;;;4994016;28;20503;-84
2022/08/12 03:30:30;;;;;;;8.05;2.15;;;537.80;2022.40;;;;;;4979113;28;20069;-83
2022/08/12 03:32:57;;;;;;;4.35;1.90;;;537.60;2048.00;;;;;;4991370;28;20130;-84
2022/08/12 03:35:26;;;;;;;6.57;3.05;;;537.70;2022.40;;;;;;5006431;28;20041;-83
2022/08/12 03:37:57;;;;;;;5.55;2.10;;;537.70;2022.40;;;;;;4978708;28;20022;-83
2022/08/12 04:00:23;;;;;;;6.38;2.10;;;537.70;2048.00;;;;;;4994905;28;20485;-84
2022/08/12 04:05:42;;;;;;;9.15;2.30;;;537.80;2022.40;;;;;;4954379;28;20047;-85
2022/08/12 04:08:10;;;;;;;10.15;2.50;;;537.80;2022.40;;;;;;4954108;28;20035;-84
2022/08/12 04:13:24;;;;;;;;;;;537.80;2022.40;;;;;;4941737;28;20073;-86
2022/08/12 04:15:51;;;;;;;2.90;1.80;;;537.80;2022.40;;;;;;4961578;28;19932;-86
2022/08/12 04:18:17;;;;;;;3.78;2.00;;;537.80;2022.40;;;;;;4959601;28;20032;-85
2022/08/12 04:20:47;;;;;;;17.00;2.78;;;537.70;2022.40;;;;;;4972834;28;20050;-85
2022/08/12 04:23:16;;;;;;;6.68;2.55;;;537.70;2022.40;;;;;;4967173;28;20441;-84
2022/08/12 04:25:42;;;;;;;6.05;2.13;;;537.70;2022.40;;;;;;4946520;28;20019;-82
2022/08/12 04:28:08;;;;;;;10.65;2.05;;;537.80;2022.40;;;;;;4965348;28;20553;-84
2022/08/12 04:30:35;;;;;;;5.15;2.33;;;537.70;2048.00;;;;;;4960540;28;20090;-84
2022/08/12 04:33:03;;;;;;;5.13;2.50;;;537.70;2048.00;;;;;;4969962;28;20136;-81
2022/08/12 04:35:30;;;;;;;5.70;2.40;;;537.70;2048.00;;;;;;4969212;28;20528;-81
2022/08/12 04:37:56;;;;;;;7.70;2.22;;;537.90;2048.00;;;;;;4957554;28;20067;-84
2022/08/12 04:40:23;;;;;;;4.80;2.22;;;537.90;2048.00;;;;;;4968340;28;20023;-84
2022/08/12 04:42:50;;;;;;;4.75;2.17;;;537.60;2099.20;;;;;;4985603;28;20081;-85
2022/08/12 04:45:17;;;;;;;4.68;2.40;;;537.60;2099.20;;;;;;4996628;28;20578;-83
2022/08/12 04:47:43;;;;;;;9.32;2.10;;;537.60;2099.20;;;;;;4980455;28;20042;-82
2022/08/12 04:50:10;;;;;;;8.02;1.88;;;537.70;2099.20;;;;;;4980274;28;20066;-83
2022/08/12 04:52:35;;;;;;;10.02;2.72;;;537.70;2099.20;;;;;;4980559;28;20081;-82
2022/08/12 04:55:02;;;;;;;7.60;2.58;;;537.70;2099.20;;;;;;4991033;28;20026;-80
2022/08/12 04:57:28;;;;;;;10.23;3.05;;;537.90;2099.20;;;;;;4995612;28;20049;-83
2022/08/12 04:59:54;;;;;;;7.15;2.15;;;537.90;2099.20;;;;;;4980196;28;20508;-81
2022/08/12 05:02:19;;;;;;;4.75;2.50;;;537.90;2099.20;;;;;;4979866;28;20077;-80
2022/08/12 05:04:47;;;;;;;12.98;2.55;;;538.00;2073.60;;;;;;4979475;28;20062;-81
2022/08/12 05:07:13;;;;;;;7.07;1.90;;;538.00;2073.60;;;;;;4979311;28;20511;-84
2022/08/12 05:09:39;;;;;;;7.20;2.90;;;538.10;2048.00;;;;;;4996677;28;20035;-81
2022/08/12 05:12:06;;;;;;;4.93;2.45;;;538.10;2073.60;;;;;;4997154;28;20023;-80
2022/08/12 05:14:32;;;;;;;4.65;2.53;;;538.20;2048.00;;;;;;4996877;28;20101;-80
2022/08/12 05:16:59;;;;;;;3.65;2.13;;;538.20;2048.00;;;;;;4996888;28;20019;-79
2022/08/12 05:19:25;;;;;;;17.38;3.60;;;538.20;2048.00;;;;;;4979588;28;20058;-80
2022/08/12 05:21:51;;;;;;;8.10;2.75;;;538.20;2048.00;;;;;;4996782;28;20066;-78
2022/08/12 05:24:17;;;;;;;7.47;2.55;;;538.30;2048.00;;;;;;4988924;28;20524;-80
2022/08/12 05:26:43;;;;;;;9.85;3.25;;;538.50;2022.40;;;;;;5008958;28;20514;-80
2022/08/12 05:29:11;;;;;;;7.53;2.58;;;538.30;2048.00;;;;;;4996424;28;20053;-80
2022/08/12 05:31:37;;;;;;;10.60;2.97;;;538.50;2048.00;;;;;;4979129;28;20443;-80
2022/08/12 05:34:04;;;;;;;7.93;2.40;;;563.20;2048.00;;;;;;4996584;28;20030;-79
2022/08/12 05:36:30;;;;;;;11.48;2.95;;;563.30;2022.40;;;;;;4979133;28;20021;-77
2022/08/12 05:38:56;;;;;;;8.82;2.35;;;563.30;2022.40;;;;;;4983619;28;20034;-80
2022/08/12 05:41:27;;;;;;;13.13;2.95;;;563.40;2022.40;;;;;;4996896;28;20370;-81
2022/08/12 05:43:54;;;;;;;7.38;3.20;;;563.40;1996.80;;;;;;4990315;28;20395;-82
2022/08/12 05:46:21;;;;;;;8.23;2.90;;;563.50;2022.40;;;;;;4996445;28;20032;-80
2022/08/12 05:48:50;;;;;;;10.50;3.50;;;563.60;1996.80;;;;;;4996395;28;20489;-80
2022/08/12 05:51:16;;;;;;;9.40;3.35;;;563.70;1971.20;;;;;;4996375;28;20022;-79
2022/08/12 05:53:42;;;;;;;4.70;2.58;;;563.80;1971.20;;;;;;4996217;28;20026;-79
2022/08/12 05:56:28;;;;;;;12.88;4.00;;;563.90;1945.60;;;;;;4996097;28;20036;-80
2022/08/12 05:58:55;;;;;;;17.17;3.50;;;563.90;1971.20;;;;;;4978697;28;20384;-79
2022/08/12 06:01:23;;;;;;;5.72;2.97;;;564.10;1945.60;;;;;;4983747;28;20033;-81
2022/08/12 06:03:50;;;;;;;12.77;3.33;;;564.10;1920.00;;;;;;4985051;28;20029;-80
2022/08/12 06:06:17;;;;;;;8.77;3.13;;;588.80;1894.40;;;;;;4987599;28;20092;-80
2022/08/12 06:08:48;;;;;;;11.48;3.60;;;589.00;1868.80;;;;;;5003819;28;20030;-81
2022/08/12 06:11:15;;;;;;;6.60;3.35;;;589.00;1894.40;;;;;;4989448;28;20048;-80
2022/08/12 06:13:42;;;;;;;10.50;3.53;;;589.00;1894.40;;;;;;4987494;28;20022;-78
2022/08/12 06:16:10;;;;;;;12.98;3.22;;;589.10;1868.80;;;;;;4995571;28;21661;-79
2022/08/12 06:18:39;;;;;;;13.95;3.42;;;589.10;1868.80;;;;;;4995806;28;20068;-80
2022/08/12 06:21:07;;;;;;;10.35;3.00;;;589.30;1894.40;;;;;;4978118;28;20054;-76
2022/08/12 06:23:32;;;;;;;6.65;3.70;;;589.30;1868.80;;;;;;4978245;28;20109;-78
2022/08/12 06:25:58;;;;;;;8.05;3.25;;;589.50;1868.80;;;;;;4995660;28;20106;-77
2022/08/12 06:28:24;;;;;;;11.45;4.22;;;589.60;1843.20;;;;;;4995357;28;20022;-77
2022/08/12 06:30:51;;;;;;;8.48;3.53;;;589.70;1843.20;;;;;;5004068;28;20025;-78
2022/08/12 06:33:17;;;;;;;8.27;3.28;;;589.70;1817.60;;;;;;4987956;28;20396;-79
2022/08/12 06:35:44;;;;;;;9.18;2.75;;;614.50;1792.00;;;;;;4978068;28;20042;-79
2022/08/12 06:38:24;;;;;;;8.57;2.85;;;614.50;1766.40;;;;;;5001511;28;20030;-78
2022/08/12 06:43:53;;;;;;;12.30;2.97;;;614.70;1766.40;;;;;;4991555;28;20033;-82
2022/08/12 06:46:24;;;;;;;7.25;3.25;;;614.70;1792.00;;;;;;4988216;28;20029;-78
2022/08/12 06:48:55;;;;;;;5.82;3.05;;;614.80;1766.40;;;;;;4982006;28;20060;-79
2022/08/12 06:51:29;;;;;;;7.45;2.60;;;614.90;1740.80;;;;;;4976818;28;20034;-77
2022/08/12 06:53:55;;;;;;;5.70;2.80;;;614.90;1740.80;;;;;;4995004;28;20069;-79
2022/08/12 06:56:22;;;;;;;7.25;3.33;;;615.10;1715.20;;;;;;4977442;28;20027;-79
2022/08/12 06:58:49;;;;;;;9.07;3.55;;;615.20;1715.20;;;;;;4987976;28;20029;-79
2022/08/12 07:01:16;;;;;;;10.90;3.95;;;640.00;1689.60;;;;;;4997056;28;20048;-81
2022/08/12 07:03:42;;;;;;;9.15;3.00;;;640.00;1689.60;;;;;;4996950;28;20031;-80
2022/08/12 07:06:10;;;;;;;6.72;3.88;;;640.10;1715.20;;;;;;4996972;28;20395;-79
2022/08/12 07:08:36;;;;;;;12.20;8.38;;;640.10;1689.60;;;;;;5014431;28;20028;-79
2022/08/12 07:11:05;;;;;;;7.95;3.35;;;640.40;1664.00;;;;;;4996640;28;20395;-79
2022/08/12 07:13:43;;;;;;;7.35;3.33;;;640.40;1689.60;;;;;;5014336;28;20018;-80
2022/08/12 07:16:17;;;;;;;4.93;2.67;;;640.50;1689.60;;;;;;5014409;28;20021;-78
2022/08/12 07:18:46;;;;;;;4.55;2.60;;;640.70;1689.60;;;;;;4996904;28;20045;-81
2022/08/12 07:21:13;;;;;;;5.65;2.83;;;640.60;1689.60;;;;;;4996665;28;20152;-79
2022/08/12 07:23:40;;;;;;;7.60;3.88;;;640.70;1664.00;;;;;;4996691;28;20017;-81
2022/08/12 07:26:10;;;;;;;6.45;3.33;;;640.90;1664.00;;;;;;4996794;28;20483;-80
2022/08/12 07:28:40;;;;;;;5.55;2.45;;;665.60;1664.00;;;;;;4996276;28;20117;-76
2022/08/12 07:31:08;;;;;;;6.10;2.50;;;665.70;1612.80;;;;;;5014292;28;20081;-77
2022/08/12 07:33:38;;;;;;;13.40;5.85;;;665.70;1638.40;;;;;;4996593;28;20434;-83
2022/08/12 07:36:07;;;;;;;9.40;3.22;;;665.90;1612.80;;;;;;5014101;28;20034;-77
2022/08/12 07:38:37;;;;;;;10.93;3.03;;;666.00;1587.20;;;;;;4996415;28;20026;-81
2022/08/12 07:41:05;;;;;;;7.10;3.38;;;666.20;1587.20;;;;;;5013702;28;20049;-82
2022/08/12 07:43:35;;;;;;;12.10;3.15;;;666.20;1561.60;;;;;;5014151;28;20022;-78
2022/08/12 07:46:03;;;;;;;10.60;3.60;;;666.40;1561.60;;;;;;5014157;28;20376;-77
2022/08/12 07:48:38;;;;;;;5.32;2.53;;;666.50;1536.00;;;;;;5013998;28;20028;-78
2022/08/12 07:51:05;;;;;;;8.82;3.30;;;666.50;1536.00;;;;;;5013945;28;20026;-83
2022/08/12 07:53:31;;;;;;;9.50;3.33;;;691.20;1536.00;;;;;;5013822;28;20084;-77
2022/08/12 07:55:57;;;;;;;10.35;3.15;;;691.20;1510.40;;;;;;5014139;28;20466;-81
2022/08/12 07:58:25;;;;;;;8.60;2.58;;;691.30;1510.40;;;;;;5013817;28;20153;-83
2022/08/12 08:00:53;;;;;;;3.90;2.60;;;691.20;1484.80;;;;;;5011684;28;20045;-78
2022/08/12 08:03:19;;;;;;;13.30;3.10;;;691.20;1484.80;;;;;;4975318;28;20039;-77
2022/08/12 08:05:45;;;;;;;3.58;2.35;;;691.30;1510.40;;;;;;4993829;28;20396;-79
2022/08/12 08:08:23;;;;;;;5.43;3.15;;;691.40;1510.40;;;;;;4994100;28;20027;-79
2022/08/12 08:10:51;;;;;;;4.90;2.75;;;691.40;1484.80;;;;;;4976269;28;20030;-80
2022/08/12 08:13:17;;;;;;;6.43;3.08;;;691.60;1484.80;;;;;;4976484;28;20022;-79
2022/08/12 08:15:45;;;;;;;4.97;2.83;;;691.70;1484.80;;;;;;4993987;28;20031;-79
2022/08/12 08:18:15;;;;;;;6.90;3.05;;;691.70;1459.20;;;;;;4976655;28;20362;-82
2022/08/12 08:20:45;;;;;;;5.60;2.63;;;691.80;1459.20;;;;;;4994128;28;20534;-85
2022/08/12 08:23:14;;;;;;;4.43;2.78;;;691.80;1484.80;;;;;;4994126;28;20105;-78
2022/08/12 08:25:40;;;;;;;17.27;10.38;;;691.90;1459.20;;;;;;4994150;28;20021;-80
2022/08/12 08:28:15;;;;;;;5.38;3.53;;;692.00;1433.60;;;;;;4993893;28;20026;-81
2022/08/12 08:30:44;;;;;;;;;;;692.00;1408.00;;;;;;4994296;28;20473;-82
2022/08/12 08:33:11;;;;;;;5.78;3.03;;;692.10;1433.60;;;;;;4993597;28;19913;-76
2022/08/12 08:35:39;;;;;;;6.50;4.20;;;716.80;1433.60;;;;;;4993558;28;20033;-77
2022/08/12 08:38:12;;;;;;;7.18;3.22;;;716.90;1433.60;;;;;;4993624;28;20038;-77
2022/08/12 08:43:30;;;;;;;6.53;2.30;;;717.10;1408.00;;;;;;4994693;28;20050;-86
2022/08/12 08:45:56;;;;;;;5.68;3.08;;;717.20;1408.00;;;;;;4976943;28;20038;-87
2022/08/12 08:48:24;;;;;;;4.43;2.75;;;717.30;1382.40;;;;;;4977679;28;20030;-84
2022/08/12 08:50:51;;;;;;;11.02;2.88;;;717.30;1382.40;;;;;;4977500;28;20042;-85
2022/08/12 08:53:17;;;;;;;5.72;2.30;;;717.40;1382.40;;;;;;4978093;28;20106;-88
2022/08/12 08:55:43;;;;;;;9.27;2.63;;;717.50;1382.40;;;;;;4977210;28;20120;-86
2022/08/12 08:58:09;;;;;;;7.45;2.95;;;717.50;1356.80;;;;;;4976665;28;20457;-86
2022/08/12 09:00:37;;;;;;;6.82;2.55;;;717.50;1382.40;;;;;;4977083;28;20031;-87
2022/08/12 09:03:04;;;;;;;5.97;2.65;;;717.50;1356.80;;;;;;4977059;28;20070;-89
2022/08/12 09:05:31;;;;;;;4.25;2.60;;;717.70;1331.20;;;;;;4976387;28;20026;-82
2022/08/12 09:08:00;;;;;;;4.38;2.90;;;717.70;1331.20;;;;;;4976306;28;20038;-82
2022/08/12 09:10:25;;;;;;;9.00;2.72;;;717.70;1305.60;;;;;;4975963;28;20089;-79
2022/08/12 09:15:37;;;;;;;3.85;2.40;;;742.50;1331.20;;;;;;4996030;28;20053;-81
2022/08/12 09:18:06;;;;;;;6.25;2.67;;;742.50;1331.20;;;;;;4979740;28;20026;-84
2022/08/12 09:20:33;;;;;;;4.13;2.17;;;742.50;1356.80;;;;;;4979663;28;20030;-83
2022/08/12 09:23:01;;;;;;;6.60;2.95;;;742.60;1331.20;;;;;;4979733;28;20073;-82
2022/08/12 09:25:30;;;;;;;4.05;2.38;;;742.50;1331.20;;;;;;4979701;28;20026;-82
2022/08/12 09:27:57;;;;;;;5.65;2.90;;;742.90;1331.20;;;;;;4979606;28;20026;-84
2022/08/12 09:30:23;;;;;;;5.22;2.55;;;742.90;1331.20;;;;;;4980264;28;20038;-84
2022/08/12 09:32:49;;;;;;;7.38;2.85;;;743.00;1331.20;;;;;;4997536;28;20019;-84
2022/08/12 09:35:23;;;;;;;4.53;3.25;;;743.10;1280.00;;;;;;4980083;28;20043;-85
2022/08/12 09:37:51;;;;;;;5.28;2.63;;;743.30;1254.40;;;;;;4980333;28;20058;-84
2022/08/12 09:40:19;;;;;;;6.18;3.03;;;768.00;1254.40;;;;;;4980151;28;20022;-84
2022/08/12 09:45:32;;;;;;;;;;;768.20;1203.20;;;;;;4997255;28;20061;-81
2022/08/12 09:48:02;;;;;;;8.38;2.80;;;768.40;1203.20;;;;;;4978806;28;19996;-81
2022/08/12 09:50:28;;;;;;;4.35;2.83;;;768.40;1177.60;;;;;;4978794;28;20069;-81
2022/08/12 09:53:08;;;;;;;9.77;3.10;;;768.50;1177.60;;;;;;4978828;28;20041;-81
2022/08/12 09:55:34;;;;;;;8.55;3.50;;;768.60;1152.00;;;;;;4978825;28;20508;-80
2022/08/12 09:58:01;;;;;;;6.28;3.50;;;768.80;1126.40;;;;;;4995965;28;20037;-78
2022/08/12 10:00:27;;;;;;;5.53;3.17;;;768.90;1152.00;;;;;;4996352;28;20516;-80
2022/08/12 10:03:01;;;;;;;4.65;3.35;;;768.90;1126.40;;;;;;4996361;28;20054;-83
2022/08/12 10:05:35;;;;;;;9.77;5.57;;;793.90;1100.80;;;;;;4996025;28;20037;-81
2022/08/12 10:08:02;;;;;;;18.00;14.05;;;794.20;1075.20;;;;;;4995969;28;20102;-80
2022/08/12 10:10:28;;;;;;;16.67;9.77;;;794.30;1075.20;;;;;;4978608;28;20535;-81
2022/08/12 10:15:44;;;;;;;8.15;3.25;;;794.50;1024.00;;;;;;4996397;28;20130;-81
2022/08/12 10:18:13;;;;;;;24.30;17.02;;;819.20;1075.20;;;;;;4978988;28;20540;-83
2022/08/12 10:20:39;;;;;;;6.13;4.18;;;819.30;1049.60;;;;;;4995945;28;20093;-83
2022/08/12 10:23:06;;;;;;;16.02;9.55;;;819.30;998.40;;;;;;4978402;28;20038;-85
2022/08/12 10:31:03;;;;;;;9.63;6.05;;;819.80;921.60;;;;;;4996459;28;20045;-84
2022/08/12 10:33:33;;;;;;;8.32;4.18;;;819.90;921.60;;;;;;4979474;28;20125;-85
2022/08/12 10:36:00;;;;;;;4.93;3.58;;;820.10;896.00;;;;;;4978713;28;20412;-84
2022/08/12 10:38:27;;;;;;;5.00;3.28;;;820.10;870.40;;;;;;4978937;28;20030;-83
2022/08/12 10:43:43;;;;;;;7.82;4.63;;;844.90;921.60;;;;;;4995922;28;20037;-83
2022/08/12 10:46:18;;;;;;;8.20;5.80;;;845.00;896.00;;;;;;4994197;28;20520;-86
2022/08/12 10:48:50;;;;;;;5.95;4.32;;;845.20;896.00;;;;;;4977480;28;20022;-85
2022/08/12 10:51:17;;;;;;;7.95;5.45;;;844.90;844.80;;;;;;4977397;28;20113;-85
2022/08/12 10:53:45;;;;;;;6.35;3.97;;;845.70;870.40;;;;;;4977875;28;20022;-86
2022/08/12 10:56:15;;;;;;;8.52;4.63;;;845.70;870.40;;;;;;4978287;28;20072;-88
2022/08/12 10:58:41;;;;;;;6.40;4.63;;;845.70;870.40;;;;;;4979095;28;20046;-86
2022/08/12 11:01:09;;;;;;;5.65;3.83;;;845.70;870.40;;;;;;4978203;28;20035;-87
2022/08/12 11:03:39;;;;;;;5.57;4.43;;;870.40;844.80;;;;;;4978092;28;20030;-85
2022/08/12 11:06:06;;;;;;;6.35;4.05;;;870.40;844.80;;;;;;4977513;28;20056;-86
2022/08/12 11:08:36;;;;;;;6.60;4.03;;;870.50;844.80;;;;;;4979664;28;20502;-85
2022/08/12 11:11:04;;;;;;;6.70;4.00;;;870.70;844.80;;;;;;4978020;28;20044;-86
2022/08/12 11:13:31;;;;;;;5.45;3.72;;;870.70;870.40;;;;;;4978614;28;20519;-85
2022/08/12 11:15:57;;;;;;;6.07;3.80;;;870.70;870.40;;;;;;4995193;28;20033;-87
2022/08/12 11:18:23;;;;;;;6.40;3.50;;;870.70;870.40;;;;;;4977957;28;20487;-86
2022/08/12 11:20:49;;;;;;;11.25;3.85;;;870.50;870.40;;;;;;4977590;28;20069;-87
2022/08/12 11:23:16;;;;;;;4.88;3.13;;;870.50;844.80;;;;;;4977934;28;20021;-88
2022/08/12 11:25:43;;;;;;;7.75;3.22;;;870.50;844.80;;;;;;4995200;28;20028;-86
2022/08/12 11:28:09;;;;;;;6.38;3.35;;;870.60;844.80;;;;;;4976596;28;20049;-86
2022/08/12 11:30:35;;;;;;;5.35;3.50;;;870.70;844.80;;;;;;4979681;28;20479;-88
2022/08/12 11:33:00;;;;;;;6.32;3.63;;;870.80;844.80;;;;;;4978408;28;20026;-87
2022/08/12 11:35:26;;;;;;;4.80;3.30;;;870.90;844.80;;;;;;4978627;28;20068;-88
2022/08/12 11:37:53;;;;;;;7.50;3.40;;;870.90;870.40;;;;;;4977960;28;20030;-87
2022/08/12 11:40:19;;;;;;;5.75;3.53;;;871.00;844.80;;;;;;4976945;28;20547;-86
2022/08/12 11:42:44;;;;;;;6.60;3.05;;;871.10;844.80;;;;;;4973922;28;20081;-85
2022/08/12 11:45:10;;;;;;;6.47;3.50;;;871.10;844.80;;;;;;4973261;28;20042;-84
2022/08/12 11:47:37;;;;;;;4.68;2.97;;;871.10;844.80;;;;;;4973715;28;20027;-85
2022/08/12 11:50:04;;;;;;;6.68;3.67;;;871.10;870.40;;;;;;4974297;28;20039;-84
2022/08/12 11:52:29;;;;;;;3.88;3.13;;;871.10;870.40;;;;;;4974039;28;20469;-87
2022/08/12 11:54:58;;;;;;;6.95;3.28;;;871.10;870.40;;;;;;4972628;28;20086;-88
2022/08/12 11:57:23;;;;;;;5.53;3.67;;;871.10;844.80;;;;;;4974108;28;20019;-89
2022/08/12 11:59:49;;;;;;;6.80;3.38;;;871.30;844.80;;;;;;4974532;28;20472;-90
2022/08/12 12:02:15;;;;;;;3.58;3.03;;;871.30;844.80;;;;;;4974714;28;20027;-86
2022/08/12 12:04:41;;;;;;;9.20;3.70;;;871.10;844.80;;;;;;4966875;28;20063;-85
2022/08/12 12:07:07;;;;;;;3.95;2.75;;;871.00;844.80;;;;;;4982917;28;20038;-87
2022/08/12 12:09:32;;;;;;;5.60;2.90;;;871.10;844.80;;;;;;4982055;28;20054;-87
2022/08/12 12:11:59;;;;;;;9.45;3.90;;;871.10;844.80;;;;;;4984942;28;20034;-85
2022/08/12 12:14:26;;;;;;;9.95;3.40;;;871.10;844.80;;;;;;4988329;28;20034;-81
2022/08/12 12:16:52;;;;;;;4.95;3.33;;;871.30;870.40;;;;;;4965154;28;20035;-85
2022/08/12 12:19:17;;;;;;;5.13;3.45;;;871.30;870.40;;;;;;4965703;28;20035;-86
2022/08/12 12:21:43;;;;;;;7.18;4.75;;;871.30;870.40;;;;;;4962305;28;20027;-85
2022/08/12 12:24:09;;;;;;;4.93;3.63;;;896.10;870.40;;;;;;4960486;28;20023;-86
2022/08/12 12:26:35;;;;;;;7.90;5.82;;;896.10;870.40;;;;;;4966117;28;20078;-85
2022/08/12 12:29:00;;;;;;;11.63;3.88;;;896.30;870.40;;;;;;4965203;28;20037;-87
2022/08/12 12:31:26;;;;;;;5.25;4.10;;;871.10;844.80;;;;;;4962775;28;20078;-83
2022/08/12 12:33:52;;;;;;;5.80;3.63;;;871.10;870.40;;;;;;4961413;28;20046;-81
2022/08/12 12:36:18;;;;;;;13.35;10.60;;;871.10;870.40;;;;;;4962982;28;20575;-84
2022/08/12 12:38:43;;;;;;;5.68;3.70;;;871.10;870.40;;;;;;4962498;28;20051;-84
2022/08/12 12:41:09;;;;;;;5.38;4.32;;;871.30;870.40;;;;;;4961357;28;20046;-85
2022/08/12 12:43:35;;;;;;;5.95;4.07;;;871.30;870.40;;;;;;4962828;28;20050;-84
2022/08/12 12:46:01;;;;;;;5.95;3.97;;;871.30;870.40;;;;;;4964683;28;20019;-83
2022/08/12 12:48:26;;;;;;;4.47;3.55;;;896.00;870.40;;;;;;4962665;28;20400;-85
2022/08/12 12:53:41;;;;;;;7.18;3.83;;;896.10;870.40;;;;;;4977246;28;20106;-83
2022/08/12 12:56:14;;;;;;;6.22;3.55;;;896.00;844.80;;;;;;4980651;28;20019;-82
2022/08/12 12:58:41;;;;;;;6.13;3.92;;;871.30;870.40;;;;;;4982806;28;20031;-85
2022/08/12 13:01:07;;;;;;;7.47;3.83;;;896.10;870.40;;;;;;4981040;28;20055;-83
2022/08/12 13:03:34;;;;;;;5.05;3.78;;;896.10;870.40;;;;;;4975518;28;20070;-84
2022/08/12 13:06:01;;;;;;;10.27;3.67;;;896.10;870.40;;;;;;4966632;28;20024;-83
2022/08/12 13:08:29;;;;;;;5.40;3.70;;;871.30;870.40;;;;;;4966162;28;20031;-84
2022/08/12 13:11:02;;;;;;;4.57;3.25;;;896.00;870.40;;;;;;4964772;28;20031;-84
2022/08/12 13:13:31;;;;;;;4.60;2.95;;;896.10;870.40;;;;;;4965968;28;20030;-85
2022/08/12 13:16:00;;;;;;;6.97;3.67;;;871.30;870.40;;;;;;4980988;28;20027;-83
2022/08/12 13:18:30;;;;;;;4.95;3.60;;;896.10;870.40;;;;;;4961590;28;20023;-81
2022/08/12 13:20:57;;;;;;;6.43;3.85;;;871.30;870.40;;;;;;4966912;28;20034;-85
2022/08/12 13:23:23;;;;;;;8.05;3.58;;;871.30;844.80;;;;;;4966859;28;20027;-83
2022/08/12 13:25:49;;;;;;;10.93;3.97;;;871.30;870.40;;;;;;4966245;28;20035;-84
2022/08/12 13:28:29;;;;;;;7.25;3.97;;;871.30;870.40;;;;;;4974335;28;20027;-86
2022/08/12 13:30:56;;;;;;;7.00;3.67;;;896.10;844.80;;;;;;4969543;28;20043;-86
2022/08/12 13:33:27;;;;;;;11.35;3.80;;;896.20;870.40;;;;;;4970846;28;20396;-81
2022/08/12 13:36:00;;;;;;;5.38;3.80;;;896.30;844.80;;;;;;4972534;28;20031;-79
2022/08/12 13:38:40;;;;;;;5.43;3.28;;;896.30;870.40;;;;;;4981971;28;20449;-82
2022/08/12 13:41:31;;;;;;;7.07;3.72;;;896.20;870.40;;;;;;4981495;28;20130;-80
2022/08/12 13:43:58;;;;;;;8.50;3.70;;;896.40;870.40;;;;;;4969329;28;20023;-79
2022/08/12 13:46:24;;;;;;;5.97;3.80;;;896.30;844.80;;;;;;4964411;28;20074;-79
2022/08/12 13:48:55;;;;;;;7.18;3.97;;;896.30;844.80;;;;;;4966898;28;20027;-78
2022/08/12 13:51:22;;;;;;;6.07;3.65;;;896.20;844.80;;;;;;4964683;28;20501;-79
2022/08/12 13:53:48;;;;;;;4.40;3.45;;;896.30;844.80;;;;;;4965319;28;20054;-81
2022/08/12 13:56:13;;;;;;;5.43;3.70;;;896.20;844.80;;;;;;4967107;28;20436;-82
2022/08/12 13:58:49;;;;;;;4.38;3.47;;;896.20;870.40;;;;;;4963486;28;20020;-83
2022/08/12 14:01:19;;;;;;;4.43;3.58;;;871.30;870.40;;;;;;4965662;28;20074;-82
2022/08/12 14:03:46;;;;;;;5.82;3.40;;;896.10;870.40;;;;;;4965377;28;20026;-85
2022/08/12 14:06:12;;;;;;;7.30;3.40;;;896.10;870.40;;;;;;4968960;28;20031;-85
2022/08/12 14:08:38;;;;;;;4.30;3.35;;;871.30;870.40;;;;;;4962351;28;20075;-84
2022/08/12 14:11:07;;;;;;;4.50;3.70;;;871.20;870.40;;;;;;4966892;28;20101;-83
2022/08/12 14:13:38;;;;;;;5.00;3.67;;;871.30;870.40;;;;;;4962959;28;20027;-85
2022/08/12 14:16:05;;;;;;;5.68;3.33;;;871.30;870.40;;;;;;4964566;28;20026;-85
2022/08/12 14:18:32;;;;;;;4.82;3.35;;;871.30;870.40;;;;;;4965903;28;20018;-86